createdAt,value
2022-12-15T00:00:35.227Z,0.30
2022-12-15T00:01:55.993Z,0.30
2022-12-15T00:03:23.352Z,0.40
2022-12-15T00:04:43.960Z,0.40
2022-12-15T00:06:04.268Z,0.30
2022-12-15T00:07:24.593Z,0.40
2022-12-15T00:08:44.945Z,0.40
2022-12-15T00:10:06.757Z,0.40
2022-12-15T00:11:27.153Z,0.40
2022-12-15T00:12:47.598Z,0.40
2022-12-15T00:14:08.597Z,0.40
2022-12-15T00:15:28.864Z,0.40
2022-12-15T00:16:49.175Z,0.40
2022-12-15T00:18:09.429Z,0.40
2022-12-15T00:19:29.924Z,0.40
2022-12-15T00:20:50.767Z,0.40
2022-12-15T00:22:11.386Z,0.40
2022-12-15T00:23:32.075Z,0.40
2022-12-15T00:24:52.577Z,0.40
2022-12-15T00:26:14.786Z,0.40
2022-12-15T00:27:35.188Z,0.40
2022-12-15T00:28:55.988Z,0.40
2022-12-15T00:30:16.741Z,0.40
2022-12-15T00:31:37.318Z,0.40
2022-12-15T00:32:58.013Z,0.40
2022-12-15T00:34:18.727Z,0.40
2022-12-15T00:35:39.212Z,0.40
2022-12-15T00:36:59.723Z,0.40
2022-12-15T00:38:25.535Z,0.40
2022-12-15T00:39:28.546Z,0.40
2022-12-15T00:40:30.557Z,0.40
2022-12-15T00:41:34.928Z,0.40
2022-12-15T00:42:37.004Z,0.40
2022-12-15T00:43:40.265Z,0.40
2022-12-15T00:44:42.321Z,0.40
2022-12-15T00:46:02.623Z,0.40
2022-12-15T00:47:06.178Z,0.40
2022-12-15T00:48:08.263Z,0.40
2022-12-15T00:49:31.864Z,0.40
2022-12-15T00:50:52.298Z,0.40
2022-12-15T00:52:12.601Z,0.40
2022-12-15T00:53:33.511Z,0.30
2022-12-15T00:54:54.182Z,0.30
2022-12-15T00:56:14.683Z,0.30
2022-12-15T00:57:36.823Z,0.30
2022-12-15T00:58:57.270Z,0.30
2022-12-15T01:00:17.767Z,0.20
2022-12-15T01:01:38.121Z,0.20
2022-12-15T01:02:58.765Z,0.20
2022-12-15T01:04:19.665Z,0.10
2022-12-15T01:05:40.223Z,0.10
2022-12-15T01:07:00.594Z,0.10
2022-12-15T01:08:20.976Z,0.10
2022-12-15T01:09:41.802Z,0.10
2022-12-15T01:11:02.080Z,0.10
2022-12-15T01:12:23.067Z,0.10
2022-12-15T01:13:44.851Z,0.10
2022-12-15T01:15:10.258Z,0.10
2022-12-15T01:16:31.574Z,0.10
2022-12-15T01:17:52.124Z,0.10
2022-12-15T01:19:12.504Z,0.10
2022-12-15T01:20:18.107Z,0.10
2022-12-15T01:21:24.270Z,0.10
2022-12-15T01:22:27.832Z,0.00
2022-12-15T01:23:31.182Z,0.00
2022-12-15T01:24:34.530Z,0.00
2022-12-15T01:25:39.251Z,0.00
2022-12-15T01:26:42.299Z,0.00
2022-12-15T01:27:45.150Z,0.00
2022-12-15T01:28:49.529Z,0.00
2022-12-15T01:29:51.566Z,0.00
2022-12-15T01:30:54.899Z,0.00
2022-12-15T01:31:57.031Z,0.00
2022-12-15T01:33:00.154Z,0.00
2022-12-15T01:34:02.206Z,0.00
2022-12-15T01:35:06.168Z,0.00
2022-12-15T01:36:09.348Z,0.00
2022-12-15T01:37:12.410Z,0.00
2022-12-15T01:38:14.404Z,0.10
2022-12-15T01:39:17.423Z,0.10
2022-12-15T01:40:40.178Z,0.10
2022-12-15T01:41:42.243Z,0.10
2022-12-15T01:42:45.313Z,0.10
2022-12-15T01:43:49.736Z,0.10
2022-12-15T01:44:54.080Z,0.10
2022-12-15T01:46:00.461Z,0.10
2022-12-15T01:47:03.620Z,0.10
2022-12-15T01:48:09.173Z,0.10
2022-12-15T01:49:16.659Z,0.10
2022-12-15T01:50:19.601Z,0.10
2022-12-15T01:51:28.058Z,0.20
2022-12-15T01:52:30.686Z,0.20
2022-12-15T01:53:38.638Z,0.20
2022-12-15T01:54:45.863Z,0.20
2022-12-15T01:55:51.325Z,0.30
2022-12-15T01:56:59.667Z,0.20
2022-12-15T01:58:06.819Z,0.20
2022-12-15T01:59:15.871Z,0.30
2022-12-15T02:00:18.088Z,0.20
2022-12-15T02:01:21.297Z,0.20
2022-12-15T02:02:28.130Z,0.20
2022-12-15T02:03:32.575Z,0.20
2022-12-15T02:04:37.783Z,0.20
2022-12-15T02:05:41.733Z,0.20
2022-12-15T02:06:44.814Z,0.20
2022-12-15T02:07:46.912Z,0.20
2022-12-15T02:08:56.327Z,0.20
2022-12-15T02:10:01.714Z,0.20
2022-12-15T02:11:24.978Z,0.20
2022-12-15T02:12:35.669Z,0.20
2022-12-15T02:13:49.640Z,0.20
2022-12-15T02:15:06.341Z,0.20
2022-12-15T02:16:18.964Z,0.20
2022-12-15T02:17:35.844Z,0.10
2022-12-15T02:18:47.784Z,0.10
2022-12-15T02:20:21.724Z,0.10
2022-12-15T02:21:29.918Z,0.10
2022-12-15T02:22:51.875Z,0.00
2022-12-15T02:24:31.848Z,0.00
2022-12-15T02:25:54.757Z,0.00
2022-12-15T02:27:27.440Z,0.00
2022-12-15T02:28:42.853Z,0.00
2022-12-15T02:30:19.601Z,0.00
2022-12-15T02:31:45.976Z,-0.10
2022-12-15T02:33:05.402Z,-0.10
2022-12-15T02:34:15.025Z,-0.10
2022-12-15T02:35:27.151Z,-0.10
2022-12-15T02:36:36.708Z,-0.10
2022-12-15T02:37:40.214Z,-0.10
2022-12-15T02:38:43.500Z,-0.10
2022-12-15T02:39:45.964Z,-0.10
2022-12-15T02:40:49.045Z,0.00
2022-12-15T02:41:52.887Z,0.00
2022-12-15T02:42:58.196Z,0.00
2022-12-15T02:44:01.958Z,0.00
2022-12-15T02:45:09.524Z,0.00
2022-12-15T02:46:24.181Z,0.00
2022-12-15T02:47:35.439Z,0.00
2022-12-15T02:48:48.448Z,0.00
2022-12-15T02:50:09.755Z,0.00
2022-12-15T02:51:28.008Z,0.00
2022-12-15T02:52:43.114Z,0.00
2022-12-15T02:54:07.483Z,0.00
2022-12-15T02:55:16.220Z,0.00
2022-12-15T02:56:26.427Z,0.00
2022-12-15T02:57:38.139Z,0.00
2022-12-15T02:58:49.437Z,0.00
2022-12-15T02:59:56.971Z,0.00
2022-12-15T03:01:04.756Z,0.00
2022-12-15T03:02:09.971Z,-0.10
2022-12-15T03:03:14.825Z,-0.10
2022-12-15T03:04:17.434Z,-0.10
2022-12-15T03:05:22.360Z,-0.10
2022-12-15T03:06:27.115Z,-0.10
2022-12-15T03:07:30.175Z,-0.10
2022-12-15T03:08:32.367Z,-0.10
2022-12-15T03:09:35.746Z,-0.20
2022-12-15T03:10:37.953Z,-0.10
2022-12-15T03:11:41.014Z,-0.20
2022-12-15T03:12:43.063Z,-0.10
2022-12-15T03:13:46.132Z,-0.10
2022-12-15T03:14:51.972Z,-0.10
2022-12-15T03:15:55.552Z,-0.20
2022-12-15T03:16:57.789Z,-0.20
2022-12-15T03:18:02.190Z,-0.20
2022-12-15T03:19:04.452Z,-0.20
2022-12-15T03:20:08.861Z,-0.20
2022-12-15T03:21:11.358Z,-0.20
2022-12-15T03:22:14.443Z,-0.20
2022-12-15T03:23:16.616Z,-0.20
2022-12-15T03:24:19.670Z,-0.20
2022-12-15T03:25:21.993Z,-0.20
2022-12-15T03:26:25.063Z,-0.20
2022-12-15T03:27:27.283Z,-0.20
2022-12-15T03:28:30.592Z,-0.20
2022-12-15T03:29:32.818Z,-0.10
2022-12-15T03:30:35.985Z,-0.20
2022-12-15T03:31:38.321Z,-0.10
2022-12-15T03:32:41.948Z,-0.10
2022-12-15T03:33:45.324Z,-0.10
2022-12-15T03:34:48.503Z,-0.10
2022-12-15T03:35:51.258Z,-0.10
2022-12-15T03:36:54.531Z,-0.10
2022-12-15T03:37:56.709Z,-0.10
2022-12-15T03:38:59.765Z,-0.10
2022-12-15T03:40:01.833Z,0.00
2022-12-15T03:41:07.200Z,-0.10
2022-12-15T03:42:09.357Z,0.00
2022-12-15T03:43:12.401Z,-0.10
2022-12-15T03:44:14.550Z,-0.10
2022-12-15T03:45:19.065Z,-0.10
2022-12-15T03:46:21.176Z,-0.10
2022-12-15T03:47:24.294Z,-0.10
2022-12-15T03:48:28.414Z,-0.10
2022-12-15T03:49:31.830Z,-0.10
2022-12-15T03:50:35.578Z,-0.20
2022-12-15T03:51:37.633Z,-0.20
2022-12-15T03:52:40.677Z,-0.20
2022-12-15T03:53:43.237Z,-0.20
2022-12-15T03:54:46.500Z,-0.20
2022-12-15T03:55:49.021Z,-0.20
2022-12-15T03:56:52.156Z,-0.20
2022-12-15T03:57:55.564Z,-0.20
2022-12-15T03:58:58.629Z,-0.20
2022-12-15T04:00:00.737Z,-0.20
2022-12-15T04:01:12.330Z,-0.20
2022-12-15T04:02:14.814Z,-0.30
2022-12-15T04:03:18.726Z,-0.20
2022-12-15T04:04:20.852Z,-0.30
2022-12-15T04:05:27.706Z,-0.30
2022-12-15T04:06:30.817Z,-0.30
2022-12-15T04:07:33.837Z,-0.30
2022-12-15T04:08:35.956Z,-0.30
2022-12-15T04:09:38.987Z,-0.30
2022-12-15T04:10:41.035Z,-0.20
2022-12-15T04:11:44.294Z,-0.20
2022-12-15T04:12:46.417Z,-0.20
2022-12-15T04:13:49.445Z,-0.20
2022-12-15T04:14:51.526Z,-0.20
2022-12-15T04:15:54.559Z,-0.20
2022-12-15T04:16:56.953Z,-0.20
2022-12-15T04:18:02.066Z,-0.20
2022-12-15T04:19:22.725Z,-0.20
2022-12-15T04:20:26.167Z,-0.20
2022-12-15T04:21:29.185Z,-0.20
2022-12-15T04:22:31.256Z,-0.20
2022-12-15T04:23:34.677Z,-0.20
2022-12-15T04:24:55.600Z,-0.20
2022-12-15T04:26:15.989Z,-0.20
2022-12-15T04:27:36.427Z,-0.30
2022-12-15T04:28:56.921Z,-0.30
2022-12-15T04:30:17.376Z,-0.30
2022-12-15T04:31:40.892Z,-0.40
2022-12-15T04:33:01.364Z,-0.40
2022-12-15T04:34:25.324Z,-0.40
2022-12-15T04:35:49.874Z,-0.40
2022-12-15T04:37:12.326Z,-0.40
2022-12-15T04:38:32.663Z,-0.40
2022-12-15T04:39:53.532Z,-0.40
2022-12-15T04:41:14.061Z,-0.40
2022-12-15T04:42:35.144Z,-0.40
2022-12-15T04:43:55.756Z,-0.40
2022-12-15T04:45:20.832Z,-0.40
2022-12-15T04:46:41.699Z,-0.40
2022-12-15T04:48:02.424Z,-0.40
2022-12-15T04:49:23.010Z,-0.40
2022-12-15T04:50:43.437Z,-0.30
2022-12-15T04:52:05.127Z,-0.30
2022-12-15T04:53:27.022Z,-0.30
2022-12-15T04:54:47.635Z,-0.30
2022-12-15T04:56:08.051Z,-0.30
2022-12-15T04:57:28.529Z,-0.30
2022-12-15T04:58:48.901Z,-0.30
2022-12-15T05:00:09.306Z,-0.30
2022-12-15T05:01:29.904Z,-0.30
2022-12-15T05:02:50.931Z,-0.30
2022-12-15T05:04:11.740Z,-0.20
2022-12-15T05:05:32.500Z,-0.20
2022-12-15T05:06:52.916Z,-0.20
2022-12-15T05:08:17.630Z,-0.20
2022-12-15T05:09:38.638Z,-0.20
2022-12-15T05:10:59.231Z,-0.20
2022-12-15T05:12:19.667Z,-0.20
2022-12-15T05:13:40.066Z,-0.30
2022-12-15T05:15:00.423Z,-0.30
2022-12-15T05:16:20.912Z,-0.30
2022-12-15T05:17:42.025Z,-0.30
2022-12-15T05:19:02.998Z,-0.30
2022-12-15T05:20:24.244Z,-0.20
2022-12-15T05:21:44.561Z,-0.20
2022-12-15T05:23:04.932Z,-0.20
2022-12-15T05:24:27.114Z,-0.20
2022-12-15T05:25:47.495Z,-0.20
2022-12-15T05:27:08.637Z,-0.20
2022-12-15T05:28:28.914Z,-0.20
2022-12-15T05:29:49.216Z,-0.30
2022-12-15T05:31:09.782Z,-0.30
2022-12-15T05:32:13.136Z,-0.30
2022-12-15T05:33:15.183Z,-0.30
2022-12-15T05:34:18.506Z,-0.30
2022-12-15T05:35:20.574Z,-0.30
2022-12-15T05:36:23.980Z,-0.30
2022-12-15T05:37:26.042Z,-0.20
2022-12-15T05:38:29.050Z,-0.30
2022-12-15T05:39:32.688Z,-0.30
2022-12-15T05:40:35.768Z,-0.30
2022-12-15T05:41:37.903Z,-0.30
2022-12-15T05:42:40.968Z,-0.30
2022-12-15T05:43:43.066Z,-0.30
2022-12-15T05:44:46.078Z,-0.30
2022-12-15T05:45:48.147Z,-0.40
2022-12-15T05:46:51.468Z,-0.40
2022-12-15T05:47:54.871Z,-0.40
2022-12-15T05:48:58.023Z,-0.40
2022-12-15T05:50:00.049Z,-0.40
2022-12-15T05:51:05.219Z,-0.40
2022-12-15T05:52:08.349Z,-0.40
2022-12-15T05:53:10.383Z,-0.40
2022-12-15T05:54:16.328Z,-0.40
2022-12-15T05:55:19.824Z,-0.40
2022-12-15T05:56:22.889Z,-0.40
2022-12-15T05:57:25.949Z,-0.50
2022-12-15T05:58:28.020Z,-0.50
2022-12-15T05:59:31.041Z,-0.50
2022-12-15T06:00:33.168Z,-0.60
2022-12-15T06:01:36.282Z,-0.60
2022-12-15T06:02:38.501Z,-0.60
2022-12-15T06:03:42.588Z,-0.60
2022-12-15T06:04:44.728Z,-0.70
2022-12-15T06:05:53.092Z,-0.70
2022-12-15T06:06:58.304Z,-0.70
2022-12-15T06:08:01.546Z,-0.70
2022-12-15T06:09:03.962Z,-0.70
2022-12-15T06:10:07.626Z,-0.70
2022-12-15T06:11:14.350Z,-0.70
2022-12-15T06:12:16.634Z,-0.70
2022-12-15T06:13:20.062Z,-0.70
2022-12-15T06:14:22.136Z,-0.80
2022-12-15T06:15:25.153Z,-0.80
2022-12-15T06:16:28.105Z,-0.80
2022-12-15T06:17:31.269Z,-0.80
2022-12-15T06:18:35.337Z,-0.80
2022-12-15T06:19:38.341Z,-0.80
2022-12-15T06:20:40.503Z,-0.80
2022-12-15T06:21:43.535Z,-0.80
2022-12-15T06:22:49.915Z,-0.80
2022-12-15T06:23:53.712Z,-0.80
2022-12-15T06:24:56.756Z,-0.90
2022-12-15T06:25:59.987Z,-0.80
2022-12-15T06:27:04.644Z,-0.90
2022-12-15T06:28:06.724Z,-0.90
2022-12-15T06:29:12.396Z,-0.80
2022-12-15T06:30:16.132Z,-0.90
2022-12-15T06:31:22.717Z,-0.90
2022-12-15T06:32:24.935Z,-0.90
2022-12-15T06:33:30.850Z,-0.90
2022-12-15T06:34:34.221Z,-0.90
2022-12-15T06:35:36.784Z,-0.90
2022-12-15T06:36:40.502Z,-0.90
2022-12-15T06:37:42.560Z,-0.90
2022-12-15T06:38:50.019Z,-0.90
2022-12-15T06:39:52.231Z,-0.90
2022-12-15T06:40:56.905Z,-0.80
2022-12-15T06:41:58.933Z,-0.80
2022-12-15T06:43:03.388Z,-0.80
2022-12-15T06:44:07.072Z,-0.80
2022-12-15T06:45:10.054Z,-0.80
2022-12-15T06:46:13.161Z,-0.80
2022-12-15T06:47:16.246Z,-0.80
2022-12-15T06:48:18.499Z,-0.80
2022-12-15T06:49:21.633Z,-0.80
2022-12-15T06:50:23.757Z,-0.80
2022-12-15T06:51:29.848Z,-0.80
2022-12-15T06:52:32.950Z,-0.90
2022-12-15T06:53:37.881Z,-0.90
2022-12-15T06:54:40.900Z,-0.90
2022-12-15T06:55:43.487Z,-0.90
2022-12-15T06:56:46.556Z,-1.00
2022-12-15T06:57:52.222Z,-1.00
2022-12-15T06:58:58.431Z,-1.00
2022-12-15T07:00:01.443Z,-0.90
2022-12-15T07:01:08.045Z,-0.90
2022-12-15T07:02:16.701Z,-0.90
2022-12-15T07:03:21.332Z,-0.90
2022-12-15T07:04:24.529Z,-0.90
2022-12-15T07:05:27.446Z,-0.90
2022-12-15T07:06:36.423Z,-0.90
2022-12-15T07:07:38.859Z,-0.90
2022-12-15T07:08:42.449Z,-0.90
2022-12-15T07:09:44.465Z,-0.90
2022-12-15T07:10:47.490Z,-0.80
2022-12-15T07:11:51.314Z,-0.90
2022-12-15T07:12:55.838Z,-0.90
2022-12-15T07:14:00.244Z,-0.90
2022-12-15T07:15:03.037Z,-0.90
2022-12-15T07:16:08.456Z,-0.90
2022-12-15T07:17:11.925Z,-0.90
2022-12-15T07:18:14.056Z,-0.90
2022-12-15T07:19:17.089Z,-0.90
2022-12-15T07:20:22.813Z,-0.80
2022-12-15T07:21:28.532Z,-0.90
2022-12-15T07:22:31.989Z,-0.80
2022-12-15T07:23:53.337Z,-0.80
2022-12-15T07:24:58.015Z,-0.80
2022-12-15T07:26:09.624Z,-0.70
2022-12-15T07:27:14.440Z,-0.70
2022-12-15T07:28:20.058Z,-0.70
2022-12-15T07:29:28.555Z,-0.70
2022-12-15T07:30:36.762Z,-0.60
2022-12-15T07:31:41.855Z,-0.60
2022-12-15T07:32:50.148Z,-0.70
2022-12-15T07:33:54.336Z,-0.70
2022-12-15T07:34:57.480Z,-0.70
2022-12-15T07:36:00.665Z,-0.80
2022-12-15T07:37:03.741Z,-0.90
2022-12-15T07:38:07.092Z,-0.90
2022-12-15T07:39:10.196Z,-0.90
2022-12-15T07:40:12.611Z,-0.90
2022-12-15T07:41:15.736Z,-0.90
2022-12-15T07:42:17.764Z,-0.90
2022-12-15T07:43:21.609Z,-0.90
2022-12-15T07:44:24.855Z,-0.90
2022-12-15T07:45:28.367Z,-0.90
2022-12-15T07:46:31.523Z,-0.80
2022-12-15T07:47:34.725Z,-0.80
2022-12-15T07:48:37.764Z,-0.80
2022-12-15T07:49:40.807Z,-0.70
2022-12-15T07:50:42.901Z,-0.70
2022-12-15T07:51:46.276Z,-0.70
2022-12-15T07:52:50.454Z,-0.70
2022-12-15T07:53:53.461Z,-0.70
2022-12-15T07:54:56.518Z,-0.70
2022-12-15T07:56:07.593Z,-0.60
2022-12-15T07:57:10.818Z,-0.60
2022-12-15T07:58:13.857Z,-0.60
2022-12-15T07:59:17.107Z,-0.60
2022-12-15T08:00:19.743Z,-0.60
2022-12-15T08:01:24.683Z,-0.60
2022-12-15T08:02:27.008Z,-0.60
2022-12-15T08:03:31.374Z,-0.60
2022-12-15T08:04:34.716Z,-0.50
2022-12-15T08:05:36.960Z,-0.50
2022-12-15T08:06:39.994Z,-0.50
2022-12-15T08:07:42.075Z,-0.40
2022-12-15T08:08:49.900Z,-0.40
2022-12-15T08:09:54.193Z,-0.40
2022-12-15T08:10:56.282Z,-0.40
2022-12-15T08:11:59.673Z,-0.30
2022-12-15T08:13:02.762Z,-0.30
2022-12-15T08:14:10.617Z,-0.30
2022-12-15T08:15:16.625Z,-0.30
2022-12-15T08:16:18.833Z,-0.30
2022-12-15T08:17:23.297Z,-0.30
2022-12-15T08:18:25.784Z,-0.20
2022-12-15T08:19:30.739Z,-0.20
2022-12-15T08:20:32.931Z,-0.20
2022-12-15T08:21:36.159Z,-0.20
2022-12-15T08:22:39.308Z,-0.20
2022-12-15T08:23:42.701Z,-0.10
2022-12-15T08:24:44.773Z,-0.10
2022-12-15T08:25:48.392Z,-0.20
2022-12-15T08:26:50.817Z,-0.20
2022-12-15T08:27:53.905Z,-0.20
2022-12-15T08:28:56.028Z,-0.20
2022-12-15T08:29:59.415Z,-0.20
2022-12-15T08:31:03.727Z,-0.30
2022-12-15T08:32:07.435Z,-0.30
2022-12-15T08:33:12.064Z,-0.30
2022-12-15T08:34:14.233Z,-0.30
2022-12-15T08:35:46.916Z,-0.30
2022-12-15T08:36:40.403Z,-0.30
2022-12-15T08:37:42.993Z,-0.30
2022-12-15T08:38:47.394Z,-0.30
2022-12-15T08:39:49.653Z,-0.30
2022-12-15T08:40:52.678Z,-0.20
2022-12-15T08:41:56.661Z,-0.20
2022-12-15T08:42:59.699Z,-0.20
2022-12-15T08:44:02.402Z,-0.10
2022-12-15T08:45:06.504Z,-0.10
2022-12-15T08:46:09.666Z,-0.10
2022-12-15T08:47:12.748Z,-0.10
2022-12-15T08:48:16.579Z,-0.20
2022-12-15T08:49:22.047Z,-0.20
2022-12-15T08:50:25.656Z,-0.20
2022-12-15T08:51:30.464Z,-0.30
2022-12-15T08:52:33.538Z,-0.30
2022-12-15T08:53:36.668Z,-0.30
2022-12-15T08:54:39.742Z,-0.20
2022-12-15T08:55:42.827Z,-0.20
2022-12-15T08:56:45.020Z,-0.20
2022-12-15T08:57:48.021Z,-0.20
2022-12-15T08:58:56.342Z,-0.20
2022-12-15T08:59:59.416Z,-0.20
2022-12-15T09:01:01.740Z,-0.20
2022-12-15T09:02:05.145Z,-0.20
2022-12-15T09:03:08.417Z,-0.20
2022-12-15T09:04:12.887Z,-0.20
2022-12-15T09:05:15.165Z,-0.20
2022-12-15T09:06:21.493Z,-0.30
2022-12-15T09:07:24.584Z,-0.30
2022-12-15T09:08:26.710Z,-0.30
2022-12-15T09:09:29.729Z,-0.40
2022-12-15T09:10:31.988Z,-0.40
2022-12-15T09:11:35.567Z,-0.40
2022-12-15T09:12:38.636Z,-0.40
2022-12-15T09:13:41.715Z,-0.40
2022-12-15T09:14:44.865Z,-0.40
2022-12-15T09:16:11.583Z,-0.40
2022-12-15T09:17:10.891Z,-0.40
2022-12-15T09:18:13.016Z,-0.40
2022-12-15T09:19:19.988Z,-0.40
2022-12-15T09:20:22.052Z,-0.40
2022-12-15T09:21:27.005Z,-0.30
2022-12-15T09:22:30.073Z,-0.30
2022-12-15T09:23:32.860Z,-0.30
2022-12-15T09:24:36.270Z,-0.30
2022-12-15T09:25:38.308Z,-0.30
2022-12-15T09:26:42.657Z,-0.30
2022-12-15T09:27:46.340Z,-0.30
2022-12-15T09:28:51.435Z,-0.30
2022-12-15T09:29:54.498Z,-0.30
2022-12-15T09:31:02.889Z,-0.30
2022-12-15T09:32:13.603Z,-0.30
2022-12-15T09:33:16.234Z,-0.30
2022-12-15T09:34:20.881Z,-0.30
2022-12-15T09:35:23.941Z,-0.30
2022-12-15T09:36:28.107Z,-0.40
2022-12-15T09:37:32.436Z,-0.30
2022-12-15T09:38:36.365Z,-0.30
2022-12-15T09:39:39.991Z,-0.30
2022-12-15T09:40:42.149Z,-0.30
2022-12-15T09:41:53.482Z,-0.30
2022-12-15T09:43:25.783Z,-0.30
2022-12-15T09:44:23.678Z,-0.30
2022-12-15T09:45:40.875Z,-0.20
2022-12-15T09:46:57.797Z,-0.20
2022-12-15T09:48:04.503Z,-0.10
2022-12-15T09:49:14.648Z,-0.10
2022-12-15T09:50:25.165Z,-0.10
2022-12-15T09:51:34.162Z,-0.10
2022-12-15T09:52:47.225Z,0.00
2022-12-15T09:53:57.011Z,0.00
2022-12-15T09:55:01.654Z,0.00
2022-12-15T09:56:08.111Z,0.00
2022-12-15T09:57:26.319Z,0.00
2022-12-15T09:58:41.624Z,-0.10
2022-12-15T10:00:00.243Z,0.00
2022-12-15T10:01:11.092Z,0.00
2022-12-15T10:02:31.165Z,0.00
2022-12-15T10:03:50.241Z,0.00
2022-12-15T10:04:57.720Z,0.00
2022-12-15T10:06:18.399Z,0.00
2022-12-15T10:07:30.524Z,0.00
2022-12-15T10:08:34.937Z,0.00
2022-12-15T10:09:39.171Z,0.00
2022-12-15T10:10:54.381Z,0.00
2022-12-15T10:12:01.201Z,0.00
2022-12-15T10:13:10.229Z,0.00
2022-12-15T10:14:22.676Z,0.00
2022-12-15T10:15:27.465Z,0.00
2022-12-15T10:16:36.150Z,0.00
2022-12-15T10:17:48.440Z,0.00
2022-12-15T10:19:08.751Z,0.00
2022-12-15T10:20:19.383Z,0.00
2022-12-15T10:21:25.595Z,0.00
2022-12-15T10:22:32.531Z,0.00
2022-12-15T10:23:36.943Z,0.00
2022-12-15T10:26:20.168Z,0.00
2022-12-15T10:27:37.648Z,0.00
2022-12-15T10:28:52.989Z,0.00
2022-12-15T10:30:02.456Z,-0.10
2022-12-15T10:31:16.683Z,-0.10
2022-12-15T10:32:21.819Z,-0.10
2022-12-15T10:33:27.630Z,-0.20
2022-12-15T10:34:34.335Z,-0.20
2022-12-15T10:35:39.614Z,-0.20
2022-12-15T10:36:51.336Z,-0.30
2022-12-15T10:37:57.685Z,-0.30
2022-12-15T10:39:00.711Z,-0.40
2022-12-15T10:40:03.861Z,-0.40
2022-12-15T10:41:09.459Z,-0.50
2022-12-15T10:42:15.746Z,-0.50
2022-12-15T10:43:28.311Z,-0.50
2022-12-15T10:44:37.603Z,-0.50
2022-12-15T10:45:41.248Z,-0.60
2022-12-15T10:46:46.767Z,-0.60
2022-12-15T10:48:02.336Z,-0.70
2022-12-15T10:49:24.048Z,-0.70
2022-12-15T10:50:27.596Z,-0.80
2022-12-15T10:51:32.469Z,-0.80
2022-12-15T10:52:37.714Z,-0.80
2022-12-15T10:53:43.217Z,-0.80
2022-12-15T10:54:48.541Z,-0.80
2022-12-15T10:56:01.468Z,-0.80
2022-12-15T10:57:17.511Z,-0.70
2022-12-15T10:58:22.731Z,-0.70
2022-12-15T10:59:31.734Z,-0.80
2022-12-15T11:00:35.229Z,-0.70
2022-12-15T11:01:38.404Z,-0.70
2022-12-15T11:02:42.477Z,-0.70
2022-12-15T11:03:45.957Z,-0.70
2022-12-15T11:04:56.758Z,-0.70
2022-12-15T11:05:59.754Z,-0.70
2022-12-15T11:07:04.872Z,-0.70
2022-12-15T11:08:17.681Z,-0.70
2022-12-15T11:09:34.282Z,-0.70
2022-12-15T11:10:51.267Z,-0.70
2022-12-15T11:12:12.538Z,-0.70
2022-12-15T11:13:17.283Z,-0.70
2022-12-15T11:14:24.102Z,-0.70
2022-12-15T11:15:47.217Z,-0.70
2022-12-15T11:16:56.374Z,-0.70
2022-12-15T11:18:02.723Z,-0.70
2022-12-15T11:19:12.189Z,-0.70
2022-12-15T11:20:22.385Z,-0.60
2022-12-15T11:21:28.726Z,-0.50
2022-12-15T11:22:41.800Z,-0.50
2022-12-15T11:23:57.434Z,-0.50
2022-12-15T11:25:06.326Z,-0.50
2022-12-15T11:26:23.126Z,-0.50
2022-12-15T11:27:32.090Z,-0.60
2022-12-15T11:28:43.812Z,-0.60
2022-12-15T11:29:58.389Z,-0.50
2022-12-15T11:31:05.588Z,-0.50
2022-12-15T11:32:12.610Z,-0.50
2022-12-15T11:33:15.867Z,-0.50
2022-12-15T11:34:21.074Z,-0.50
2022-12-15T11:35:31.146Z,-0.40
2022-12-15T11:37:03.297Z,-0.40
2022-12-15T11:38:15.503Z,-0.40
2022-12-15T11:39:31.458Z,-0.30
2022-12-15T11:40:41.224Z,-0.40
2022-12-15T11:41:53.508Z,-0.40
2022-12-15T11:43:10.998Z,-0.30
2022-12-15T11:44:28.207Z,-0.30
2022-12-15T11:45:40.348Z,-0.30
2022-12-15T11:46:51.544Z,-0.20
2022-12-15T11:48:01.192Z,-0.10
2022-12-15T11:49:41.505Z,-0.10
2022-12-15T11:50:53.675Z,0.00
2022-12-15T11:52:04.144Z,0.10
2022-12-15T11:53:19.772Z,0.10
2022-12-15T11:54:29.767Z,0.10
2022-12-15T11:55:41.769Z,0.20
2022-12-15T11:56:49.183Z,0.30
2022-12-15T11:58:06.362Z,0.30
2022-12-15T11:59:33.508Z,0.30
2022-12-15T12:00:43.379Z,0.30
2022-12-15T12:02:05.141Z,0.40
2022-12-15T12:03:26.200Z,0.40
2022-12-15T12:04:38.480Z,0.40
2022-12-15T12:06:03.912Z,0.50
2022-12-15T12:07:13.634Z,0.50
2022-12-15T12:08:42.945Z,0.50
2022-12-15T12:09:58.724Z,0.50
2022-12-15T12:11:10.569Z,0.40
2022-12-15T12:12:23.546Z,0.40
2022-12-15T12:13:33.736Z,0.40
2022-12-15T12:14:50.681Z,0.40
2022-12-15T12:16:09.147Z,0.40
2022-12-15T12:17:21.850Z,0.40
2022-12-15T12:18:29.339Z,0.40
2022-12-15T12:19:38.339Z,0.40
2022-12-15T12:20:47.994Z,0.40
2022-12-15T12:22:01.297Z,0.30
2022-12-15T12:23:08.018Z,0.30
2022-12-15T12:24:17.436Z,0.10
2022-12-15T12:25:23.595Z,0.10
2022-12-15T12:26:33.640Z,0.00
2022-12-15T12:27:43.918Z,-0.10
2022-12-15T12:28:59.251Z,-0.10
2022-12-15T12:30:06.828Z,-0.20
2022-12-15T12:31:21.876Z,-0.20
2022-12-15T12:32:34.736Z,-0.30
2022-12-15T12:33:45.568Z,-0.30
2022-12-15T12:35:29.878Z,-0.30
2022-12-15T12:36:21.045Z,-0.40
2022-12-15T12:37:28.827Z,-0.40
2022-12-15T12:38:36.590Z,-0.50
2022-12-15T12:39:39.096Z,-0.50
2022-12-15T12:40:56.597Z,-0.50
2022-12-15T12:42:07.030Z,-0.50
2022-12-15T12:43:14.079Z,-0.60
2022-12-15T12:44:29.663Z,-0.50
2022-12-15T12:45:37.370Z,-0.50
2022-12-15T12:46:44.893Z,-0.50
2022-12-15T12:47:55.757Z,-0.40
2022-12-15T12:49:04.232Z,-0.40
2022-12-15T12:50:14.701Z,-0.30
2022-12-15T12:51:24.304Z,-0.30
2022-12-15T12:52:30.985Z,-0.30
2022-12-15T12:53:34.909Z,-0.20
2022-12-15T12:54:44.029Z,-0.20
2022-12-15T12:55:48.482Z,-0.20
2022-12-15T12:56:53.660Z,-0.20
2022-12-15T12:57:57.147Z,-0.20
2022-12-15T12:58:59.312Z,-0.20
2022-12-15T13:00:05.931Z,-0.20
2022-12-15T13:01:20.380Z,-0.20
2022-12-15T13:02:54.083Z,-0.20
2022-12-15T13:04:11.830Z,-0.10
2022-12-15T13:05:26.806Z,-0.10
2022-12-15T13:06:59.095Z,0.00
2022-12-15T13:08:27.218Z,0.00
2022-12-15T13:09:42.019Z,0.00
2022-12-15T13:10:45.964Z,0.10
2022-12-15T13:12:14.897Z,0.10
2022-12-15T13:13:47.380Z,0.10
2022-12-15T13:14:56.065Z,0.10
2022-12-15T13:16:04.824Z,0.10
2022-12-15T13:17:31.015Z,0.10
2022-12-15T13:18:57.293Z,0.10
2022-12-15T13:20:23.681Z,0.10
2022-12-15T13:21:56.074Z,0.10
2022-12-15T13:23:42.349Z,0.10
2022-12-15T13:24:50.502Z,0.10
2022-12-15T13:26:12.462Z,0.10
2022-12-15T13:27:17.421Z,0.00
2022-12-15T13:28:40.493Z,0.00
2022-12-15T13:30:00.459Z,0.00
2022-12-15T13:31:33.371Z,-0.10
2022-12-15T13:32:39.175Z,-0.10
2022-12-15T13:33:45.656Z,-0.10
2022-12-15T13:34:48.733Z,-0.20
2022-12-15T13:35:52.038Z,-0.20
2022-12-15T13:36:57.369Z,-0.20
2022-12-15T13:38:02.901Z,-0.20
2022-12-15T13:39:28.489Z,-0.20
2022-12-15T13:40:50.708Z,-0.10
2022-12-15T13:42:37.293Z,-0.10
2022-12-15T13:43:49.502Z,-0.10
2022-12-15T13:44:57.303Z,-0.20
2022-12-15T13:46:03.528Z,-0.20
2022-12-15T13:47:11.117Z,-0.20
2022-12-15T13:48:28.263Z,-0.30
2022-12-15T13:49:35.727Z,-0.30
2022-12-15T13:50:51.359Z,-0.30
2022-12-15T13:52:02.552Z,-0.30
2022-12-15T13:53:19.268Z,-0.30
2022-12-15T13:54:26.757Z,-0.30
2022-12-15T13:55:37.145Z,-0.30
2022-12-15T13:56:50.916Z,-0.30
2022-12-15T13:57:56.877Z,-0.30
2022-12-15T13:59:06.014Z,-0.20
2022-12-15T14:00:18.466Z,-0.20
2022-12-15T14:01:32.773Z,-0.20
2022-12-15T14:02:37.982Z,-0.10
2022-12-15T14:03:41.083Z,-0.10
2022-12-15T14:04:44.178Z,-0.10
2022-12-15T14:05:53.221Z,-0.10
2022-12-15T14:06:58.343Z,-0.10
2022-12-15T14:08:03.742Z,0.00
2022-12-15T14:09:12.591Z,0.00
2022-12-15T14:10:21.415Z,0.00
2022-12-15T14:11:51.965Z,0.00
2022-12-15T14:12:53.701Z,0.00
2022-12-15T14:14:02.051Z,0.00
2022-12-15T14:15:05.847Z,0.00
2022-12-15T14:16:18.046Z,0.00
2022-12-15T14:17:21.357Z,0.00
2022-12-15T14:18:27.785Z,-0.10
2022-12-15T14:19:41.554Z,-0.10
2022-12-15T14:20:43.603Z,-0.20
2022-12-15T14:21:51.235Z,-0.20
2022-12-15T14:22:54.978Z,-0.30
2022-12-15T14:24:37.573Z,-0.30
2022-12-15T14:25:23.658Z,-0.30
2022-12-15T14:26:30.768Z,-0.30
2022-12-15T14:27:34.791Z,-0.40
2022-12-15T14:28:39.496Z,-0.40
2022-12-15T14:29:42.846Z,-0.40
2022-12-15T14:30:46.112Z,-0.40
2022-12-15T14:31:56.738Z,-0.40
2022-12-15T14:33:06.948Z,-0.50
2022-12-15T14:34:14.899Z,-0.50
2022-12-15T14:35:24.284Z,-0.40
2022-12-15T14:36:27.817Z,-0.40
2022-12-15T14:37:30.143Z,-0.50
2022-12-15T14:38:41.718Z,-0.40
2022-12-15T14:39:47.925Z,-0.40
2022-12-15T14:40:57.488Z,-0.40
2022-12-15T14:42:02.277Z,-0.40
2022-12-15T14:43:06.648Z,-0.40
2022-12-15T14:44:31.477Z,-0.40
2022-12-15T14:45:42.357Z,-0.40
2022-12-15T14:46:48.414Z,-0.40
2022-12-15T14:48:30.593Z,-0.40
2022-12-15T14:49:22.197Z,-0.40
2022-12-15T14:50:26.681Z,-0.40
2022-12-15T14:51:32.933Z,-0.40
2022-12-15T14:52:38.992Z,-0.40
2022-12-15T14:53:44.576Z,-0.40
2022-12-15T14:54:57.278Z,-0.40
2022-12-15T14:56:13.953Z,-0.40
2022-12-15T14:57:21.997Z,-0.40
2022-12-15T14:58:32.922Z,-0.40
2022-12-15T14:59:41.157Z,-0.40
2022-12-15T15:00:52.790Z,-0.40
2022-12-15T15:02:03.026Z,-0.40
2022-12-15T15:04:32.549Z,-0.40
2022-12-15T15:05:34.817Z,-0.40